sensor_id;sensor_type;location;lat;lon;timestamp;P1;durP1;ratioP1;P2;durP2;ratioP2
14001;SDS011;7076;51.280;12.584;2022-10-16T00:02:33;0.40;;;0.40;;
14001;SDS011;7076;51.280;12.584;2022-10-16T00:07:36;0.38;;;0.30;;
14001;SDS011;7076;51.280;12.584;2022-10-16T00:12:40;1.23;;;0.45;;
14001;SDS011;7076;51.280;12.584;2022-10-16T00:17:43;5.03;;;0.50;;
14001;SDS011;7076;51.280;12.584;2022-10-16T00:22:45;0.52;;;0.45;;
14001;SDS011;7076;51.280;12.584;2022-10-16T00:27:49;0.98;;;0.28;;
14001;SDS011;7076;51.280;12.584;2022-10-16T00:32:52;1.15;;;0.40;;
14001;SDS011;7076;51.280;12.584;2022-10-16T00:37:55;1.13;;;0.30;;
14001;SDS011;7076;51.280;12.584;2022-10-16T00:42:59;2.00;;;0.38;;
14001;SDS011;7076;51.280;12.584;2022-10-16T00:48:01;0.50;;;0.45;;
14001;SDS011;7076;51.280;12.584;2022-10-16T00:53:04;0.45;;;0.40;;
14001;SDS011;7076;51.280;12.584;2022-10-16T00:58:08;0.30;;;0.30;;
14001;SDS011;7076;51.280;12.584;2022-10-16T01:03:23;0.80;;;0.40;;
14001;SDS011;7076;51.280;12.584;2022-10-16T01:08:31;0.50;;;0.32;;
14001;SDS011;7076;51.280;12.584;2022-10-16T01:13:38;0.47;;;0.30;;
14001;SDS011;7076;51.280;12.584;2022-10-16T01:18:44;0.47;;;0.40;;
14001;SDS011;7076;51.280;12.584;2022-10-16T01:23:51;0.80;;;0.40;;
14001;SDS011;7076;51.280;12.584;2022-10-16T01:28:59;0.40;;;0.40;;
14001;SDS011;7076;51.280;12.584;2022-10-16T01:34:07;0.43;;;0.40;;
14001;SDS011;7076;51.280;12.584;2022-10-16T01:39:15;0.77;;;0.35;;
14001;SDS011;7076;51.280;12.584;2022-10-16T01:44:20;0.40;;;0.40;;
14001;SDS011;7076;51.280;12.584;2022-10-16T01:49:25;0.32;;;0.32;;
14001;SDS011;7076;51.280;12.584;2022-10-16T01:54:30;1.63;;;0.40;;
14001;SDS011;7076;51.280;12.584;2022-10-16T01:59:37;0.30;;;0.30;;
14001;SDS011;7076;51.280;12.584;2022-10-16T02:04:44;2.10;;;0.40;;
14001;SDS011;7076;51.280;12.584;2022-10-16T02:09:48;0.40;;;0.40;;
14001;SDS011;7076;51.280;12.584;2022-10-16T02:14:53;0.57;;;0.40;;
14001;SDS011;7076;51.280;12.584;2022-10-16T02:19:56;0.30;;;0.30;;
14001;SDS011;7076;51.280;12.584;2022-10-16T02:25:00;0.57;;;0.40;;
14001;SDS011;7076;51.280;12.584;2022-10-16T02:30:07;0.82;;;0.50;;
14001;SDS011;7076;51.280;12.584;2022-10-16T02:35:15;0.60;;;0.40;;
14001;SDS011;7076;51.280;12.584;2022-10-16T02:40:19;0.40;;;0.40;;
14001;SDS011;7076;51.280;12.584;2022-10-16T02:45:27;2.25;;;0.60;;
14001;SDS011;7076;51.280;12.584;2022-10-16T02:50:30;0.80;;;0.40;;
14001;SDS011;7076;51.280;12.584;2022-10-16T02:55:33;0.40;;;0.40;;
14001;SDS011;7076;51.280;12.584;2022-10-16T03:00:37;0.80;;;0.80;;
14001;SDS011;7076;51.280;12.584;2022-10-16T03:05:39;2.55;;;0.38;;
14001;SDS011;7076;51.280;12.584;2022-10-16T03:10:42;0.73;;;0.40;;
14001;SDS011;7076;51.280;12.584;2022-10-16T03:15:46;0.65;;;0.40;;
14001;SDS011;7076;51.280;12.584;2022-10-16T03:20:49;1.92;;;0.40;;
14001;SDS011;7076;51.280;12.584;2022-10-16T03:25:52;2.85;;;0.50;;
14001;SDS011;7076;51.280;12.584;2022-10-16T03:30:56;0.73;;;0.40;;
14001;SDS011;7076;51.280;12.584;2022-10-16T03:35:59;0.45;;;0.40;;
14001;SDS011;7076;51.280;12.584;2022-10-16T03:41:02;0.50;;;0.40;;
14001;SDS011;7076;51.280;12.584;2022-10-16T03:46:06;1.35;;;0.40;;
14001;SDS011;7076;51.280;12.584;2022-10-16T03:51:09;1.08;;;0.63;;
14001;SDS011;7076;51.280;12.584;2022-10-16T03:56:11;0.60;;;0.43;;
14001;SDS011;7076;51.280;12.584;2022-10-16T04:01:15;0.40;;;0.35;;
14001;SDS011;7076;51.280;12.584;2022-10-16T04:06:18;1.15;;;0.55;;
14001;SDS011;7076;51.280;12.584;2022-10-16T04:11:21;1.75;;;0.50;;
14001;SDS011;7076;51.280;12.584;2022-10-16T04:16:25;0.82;;;0.50;;
14001;SDS011;7076;51.280;12.584;2022-10-16T04:21:27;0.50;;;0.50;;
14001;SDS011;7076;51.280;12.584;2022-10-16T04:26:31;0.43;;;0.40;;
14001;SDS011;7076;51.280;12.584;2022-10-16T04:31:35;0.40;;;0.40;;
14001;SDS011;7076;51.280;12.584;2022-10-16T04:36:37;0.40;;;0.40;;
14001;SDS011;7076;51.280;12.584;2022-10-16T04:41:40;1.88;;;0.30;;
14001;SDS011;7076;51.280;12.584;2022-10-16T04:46:44;2.35;;;0.50;;
14001;SDS011;7076;51.280;12.584;2022-10-16T04:51:47;1.13;;;0.50;;
14001;SDS011;7076;51.280;12.584;2022-10-16T04:56:49;0.77;;;0.40;;
14001;SDS011;7076;51.280;12.584;2022-10-16T05:01:54;1.00;;;0.28;;
14001;SDS011;7076;51.280;12.584;2022-10-16T05:06:57;3.13;;;0.60;;
14001;SDS011;7076;51.280;12.584;2022-10-16T05:12:00;0.40;;;0.40;;
14001;SDS011;7076;51.280;12.584;2022-10-16T05:17:06;2.33;;;0.60;;
14001;SDS011;7076;51.280;12.584;2022-10-16T05:22:08;2.30;;;0.90;;
14001;SDS011;7076;51.280;12.584;2022-10-16T05:27:11;0.60;;;0.50;;
14001;SDS011;7076;51.280;12.584;2022-10-16T05:32:21;1.92;;;0.45;;
14001;SDS011;7076;51.280;12.584;2022-10-16T05:37:23;1.55;;;0.40;;
14001;SDS011;7076;51.280;12.584;2022-10-16T05:42:27;1.30;;;0.80;;
14001;SDS011;7076;51.280;12.584;2022-10-16T05:47:31;0.90;;;0.60;;
14001;SDS011;7076;51.280;12.584;2022-10-16T05:52:34;0.43;;;0.43;;
14001;SDS011;7076;51.280;12.584;2022-10-16T05:57:37;2.15;;;0.40;;
14001;SDS011;7076;51.280;12.584;2022-10-16T06:02:41;0.75;;;0.50;;
14001;SDS011;7076;51.280;12.584;2022-10-16T06:07:43;2.15;;;0.40;;
14001;SDS011;7076;51.280;12.584;2022-10-16T06:12:46;1.17;;;0.70;;
14001;SDS011;7076;51.280;12.584;2022-10-16T06:17:50;0.80;;;0.80;;
14001;SDS011;7076;51.280;12.584;2022-10-16T06:22:53;1.30;;;0.70;;
14001;SDS011;7076;51.280;12.584;2022-10-16T06:27:55;0.52;;;0.50;;
14001;SDS011;7076;51.280;12.584;2022-10-16T06:32:59;0.40;;;0.40;;
14001;SDS011;7076;51.280;12.584;2022-10-16T06:38:02;0.60;;;0.60;;
14001;SDS011;7076;51.280;12.584;2022-10-16T06:43:05;0.40;;;0.40;;
14001;SDS011;7076;51.280;12.584;2022-10-16T06:48:09;3.75;;;0.50;;
14001;SDS011;7076;51.280;12.584;2022-10-16T06:53:11;2.05;;;0.50;;
14001;SDS011;7076;51.280;12.584;2022-10-16T06:58:14;1.73;;;0.52;;
14001;SDS011;7076;51.280;12.584;2022-10-16T07:03:18;2.15;;;1.80;;
14001;SDS011;7076;51.280;12.584;2022-10-16T07:08:21;0.40;;;0.40;;
14001;SDS011;7076;51.280;12.584;2022-10-16T07:13:23;0.88;;;0.40;;
14001;SDS011;7076;51.280;12.584;2022-10-16T07:18:27;0.50;;;0.50;;
14001;SDS011;7076;51.280;12.584;2022-10-16T07:23:31;0.73;;;0.40;;
14001;SDS011;7076;51.280;12.584;2022-10-16T07:28:34;0.40;;;0.40;;
14001;SDS011;7076;51.280;12.584;2022-10-16T07:33:38;2.17;;;0.40;;
14001;SDS011;7076;51.280;12.584;2022-10-16T07:38:43;0.30;;;0.30;;
14001;SDS011;7076;51.280;12.584;2022-10-16T07:43:46;0.63;;;0.30;;
14001;SDS011;7076;51.280;12.584;2022-10-16T07:48:50;0.57;;;0.57;;
14001;SDS011;7076;51.280;12.584;2022-10-16T07:53:53;1.70;;;0.50;;
14001;SDS011;7076;51.280;12.584;2022-10-16T07:58:56;0.35;;;0.35;;
14001;SDS011;7076;51.280;12.584;2022-10-16T08:04:00;2.33;;;0.30;;
14001;SDS011;7076;51.280;12.584;2022-10-16T08:09:03;0.57;;;0.43;;
14001;SDS011;7076;51.280;12.584;2022-10-16T08:14:06;1.25;;;1.15;;
14001;SDS011;7076;51.280;12.584;2022-10-16T08:19:10;0.63;;;0.63;;
14001;SDS011;7076;51.280;12.584;2022-10-16T08:24:13;3.15;;;0.40;;
14001;SDS011;7076;51.280;12.584;2022-10-16T08:29:15;0.50;;;0.30;;
14001;SDS011;7076;51.280;12.584;2022-10-16T08:34:19;0.20;;;0.20;;
14001;SDS011;7076;51.280;12.584;2022-10-16T08:39:22;0.28;;;0.28;;
14001;SDS011;7076;51.280;12.584;2022-10-16T08:44:28;0.28;;;0.20;;
14001;SDS011;7076;51.280;12.584;2022-10-16T08:49:38;0.50;;;0.50;;
14001;SDS011;7076;51.280;12.584;2022-10-16T08:54:44;0.55;;;0.40;;
14001;SDS011;7076;51.280;12.584;2022-10-16T08:59:49;1.52;;;0.30;;
14001;SDS011;7076;51.280;12.584;2022-10-16T09:04:55;1.30;;;0.38;;
14001;SDS011;7076;51.280;12.584;2022-10-16T09:10:08;0.30;;;0.30;;
14001;SDS011;7076;51.280;12.584;2022-10-16T09:15:19;0.20;;;0.20;;
14001;SDS011;7076;51.280;12.584;2022-10-16T09:20:29;0.40;;;0.40;;
14001;SDS011;7076;51.280;12.584;2022-10-16T09:25:35;0.90;;;0.43;;
14001;SDS011;7076;51.280;12.584;2022-10-16T09:30:40;0.73;;;0.47;;
14001;SDS011;7076;51.280;12.584;2022-10-16T09:35:45;1.30;;;0.40;;
14001;SDS011;7076;51.280;12.584;2022-10-16T09:40:49;0.45;;;0.40;;
14001;SDS011;7076;51.280;12.584;2022-10-16T09:46:04;2.10;;;0.55;;
14001;SDS011;7076;51.280;12.584;2022-10-16T09:51:16;2.00;;;0.50;;
14001;SDS011;7076;51.280;12.584;2022-10-16T09:56:21;0.60;;;0.60;;
14001;SDS011;7076;51.280;12.584;2022-10-16T10:01:28;0.43;;;0.43;;
14001;SDS011;7076;51.280;12.584;2022-10-16T10:06:34;0.85;;;0.50;;
14001;SDS011;7076;51.280;12.584;2022-10-16T10:11:47;0.40;;;0.40;;
14001;SDS011;7076;51.280;12.584;2022-10-16T10:16:52;1.60;;;0.60;;
14001;SDS011;7076;51.280;12.584;2022-10-16T10:22:12;4.25;;;0.95;;
14001;SDS011;7076;51.280;12.584;2022-10-16T10:27:18;2.17;;;0.90;;
14001;SDS011;7076;51.280;12.584;2022-10-16T10:32:24;2.70;;;0.75;;
14001;SDS011;7076;51.280;12.584;2022-10-16T10:37:36;1.13;;;0.60;;
14001;SDS011;7076;51.280;12.584;2022-10-16T10:42:47;0.50;;;0.50;;
14001;SDS011;7076;51.280;12.584;2022-10-16T10:47:56;1.33;;;0.70;;
14001;SDS011;7076;51.280;12.584;2022-10-16T10:53:09;0.60;;;0.60;;
14001;SDS011;7076;51.280;12.584;2022-10-16T11:04:07;1.42;;;0.70;;
14001;SDS011;7076;51.280;12.584;2022-10-16T11:09:24;0.60;;;0.60;;
14001;SDS011;7076;51.280;12.584;2022-10-16T11:14:29;1.08;;;0.70;;
14001;SDS011;7076;51.280;12.584;2022-10-16T11:19:37;0.98;;;0.77;;
14001;SDS011;7076;51.280;12.584;2022-10-16T11:24:46;4.25;;;0.60;;
14001;SDS011;7076;51.280;12.584;2022-10-16T11:29:52;0.68;;;0.68;;
14001;SDS011;7076;51.280;12.584;2022-10-16T11:35:00;1.40;;;0.80;;
14001;SDS011;7076;51.280;12.584;2022-10-16T11:40:11;1.42;;;0.65;;
14001;SDS011;7076;51.280;12.584;2022-10-16T11:45:24;0.70;;;0.63;;
14001;SDS011;7076;51.280;12.584;2022-10-16T11:50:31;2.05;;;0.80;;
14001;SDS011;7076;51.280;12.584;2022-10-16T11:55:39;1.20;;;1.00;;
14001;SDS011;7076;51.280;12.584;2022-10-16T12:00:47;0.70;;;0.70;;
14001;SDS011;7076;51.280;12.584;2022-10-16T12:05:59;1.20;;;0.73;;
14001;SDS011;7076;51.280;12.584;2022-10-16T12:11:20;0.65;;;0.65;;
14001;SDS011;7076;51.280;12.584;2022-10-16T12:16:25;0.98;;;0.60;;
14001;SDS011;7076;51.280;12.584;2022-10-16T12:21:29;0.70;;;0.70;;
14001;SDS011;7076;51.280;12.584;2022-10-16T12:26:36;1.05;;;1.00;;
14001;SDS011;7076;51.280;12.584;2022-10-16T12:31:43;0.55;;;0.55;;
14001;SDS011;7076;51.280;12.584;2022-10-16T12:37:07;1.15;;;0.60;;
14001;SDS011;7076;51.280;12.584;2022-10-16T12:42:21;0.70;;;0.70;;
14001;SDS011;7076;51.280;12.584;2022-10-16T12:47:35;0.60;;;0.57;;
14001;SDS011;7076;51.280;12.584;2022-10-16T12:52:39;0.60;;;0.60;;
14001;SDS011;7076;51.280;12.584;2022-10-16T12:57:45;3.22;;;0.50;;
14001;SDS011;7076;51.280;12.584;2022-10-16T13:08:39;0.70;;;0.70;;
14001;SDS011;7076;51.280;12.584;2022-10-16T13:14:03;0.60;;;0.60;;
14001;SDS011;7076;51.280;12.584;2022-10-16T13:19:19;0.80;;;0.60;;
14001;SDS011;7076;51.280;12.584;2022-10-16T13:24:31;1.55;;;0.65;;
14001;SDS011;7076;51.280;12.584;2022-10-16T13:29:46;0.68;;;0.68;;
14001;SDS011;7076;51.280;12.584;2022-10-16T13:34:56;1.42;;;0.52;;
14001;SDS011;7076;51.280;12.584;2022-10-16T13:40:04;0.77;;;0.70;;
14001;SDS011;7076;51.280;12.584;2022-10-16T13:45:18;0.63;;;0.50;;
14001;SDS011;7076;51.280;12.584;2022-10-16T13:50:21;0.50;;;0.50;;
14001;SDS011;7076;51.280;12.584;2022-10-16T13:55:24;0.50;;;0.50;;
14001;SDS011;7076;51.280;12.584;2022-10-16T14:00:28;0.98;;;0.90;;
14001;SDS011;7076;51.280;12.584;2022-10-16T14:05:31;1.10;;;1.00;;
14001;SDS011;7076;51.280;12.584;2022-10-16T14:10:34;0.40;;;0.40;;
14001;SDS011;7076;51.280;12.584;2022-10-16T14:15:39;0.40;;;0.40;;
14001;SDS011;7076;51.280;12.584;2022-10-16T14:20:41;0.50;;;0.50;;
14001;SDS011;7076;51.280;12.584;2022-10-16T14:25:44;0.60;;;0.60;;
14001;SDS011;7076;51.280;12.584;2022-10-16T14:30:52;1.50;;;1.00;;
14001;SDS011;7076;51.280;12.584;2022-10-16T14:36:00;0.60;;;0.60;;
14001;SDS011;7076;51.280;12.584;2022-10-16T14:41:04;1.13;;;0.52;;
14001;SDS011;7076;51.280;12.584;2022-10-16T14:46:11;0.45;;;0.45;;
14001;SDS011;7076;51.280;12.584;2022-10-16T14:51:16;1.05;;;0.75;;
14001;SDS011;7076;51.280;12.584;2022-10-16T14:56:20;0.45;;;0.43;;
14001;SDS011;7076;51.280;12.584;2022-10-16T15:01:25;0.30;;;0.30;;
14001;SDS011;7076;51.280;12.584;2022-10-16T15:06:27;1.67;;;0.70;;
14001;SDS011;7076;51.280;12.584;2022-10-16T15:11:30;0.50;;;0.40;;
14001;SDS011;7076;51.280;12.584;2022-10-16T15:16:35;1.00;;;0.95;;
14001;SDS011;7076;51.280;12.584;2022-10-16T15:21:47;1.55;;;0.43;;
14001;SDS011;7076;51.280;12.584;2022-10-16T15:26:50;0.88;;;0.60;;
14001;SDS011;7076;51.280;12.584;2022-10-16T15:31:53;1.35;;;0.60;;
14001;SDS011;7076;51.280;12.584;2022-10-16T15:36:57;0.70;;;0.70;;
14001;SDS011;7076;51.280;12.584;2022-10-16T15:42:01;1.00;;;0.60;;
14001;SDS011;7076;51.280;12.584;2022-10-16T15:47:04;0.43;;;0.40;;
14001;SDS011;7076;51.280;12.584;2022-10-16T15:52:08;0.52;;;0.30;;
14001;SDS011;7076;51.280;12.584;2022-10-16T15:57:10;0.30;;;0.30;;
14001;SDS011;7076;51.280;12.584;2022-10-16T16:02:13;1.65;;;0.50;;
14001;SDS011;7076;51.280;12.584;2022-10-16T16:07:17;0.57;;;0.57;;
14001;SDS011;7076;51.280;12.584;2022-10-16T16:12:20;2.83;;;2.50;;
14001;SDS011;7076;51.280;12.584;2022-10-16T16:17:23;1.02;;;0.90;;
14001;SDS011;7076;51.280;12.584;2022-10-16T16:22:27;1.90;;;0.80;;
14001;SDS011;7076;51.280;12.584;2022-10-16T16:27:31;0.80;;;0.80;;
14001;SDS011;7076;51.280;12.584;2022-10-16T16:32:35;1.13;;;0.88;;
14001;SDS011;7076;51.280;12.584;2022-10-16T16:37:39;1.17;;;1.00;;
14001;SDS011;7076;51.280;12.584;2022-10-16T16:42:42;2.00;;;1.17;;
14001;SDS011;7076;51.280;12.584;2022-10-16T16:47:44;3.88;;;2.03;;
14001;SDS011;7076;51.280;12.584;2022-10-16T16:52:49;4.38;;;3.65;;
14001;SDS011;7076;51.280;12.584;2022-10-16T16:57:51;5.00;;;3.03;;
14001;SDS011;7076;51.280;12.584;2022-10-16T17:02:54;3.88;;;2.60;;
14001;SDS011;7076;51.280;12.584;2022-10-16T17:07:59;2.65;;;2.05;;
14001;SDS011;7076;51.280;12.584;2022-10-16T17:13:01;1.85;;;1.55;;
14001;SDS011;7076;51.280;12.584;2022-10-16T17:18:04;4.43;;;2.78;;
14001;SDS011;7076;51.280;12.584;2022-10-16T17:23:08;9.25;;;4.95;;
14001;SDS011;7076;51.280;12.584;2022-10-16T17:28:12;9.85;;;5.25;;
14001;SDS011;7076;51.280;12.584;2022-10-16T17:33:15;9.23;;;5.40;;
14001;SDS011;7076;51.280;12.584;2022-10-16T17:38:19;11.32;;;7.07;;
14001;SDS011;7076;51.280;12.584;2022-10-16T17:43:23;7.78;;;4.80;;
14001;SDS011;7076;51.280;12.584;2022-10-16T17:48:26;13.30;;;6.63;;
14001;SDS011;7076;51.280;12.584;2022-10-16T17:53:30;14.52;;;6.13;;
14001;SDS011;7076;51.280;12.584;2022-10-16T17:58:33;9.70;;;5.25;;
14001;SDS011;7076;51.280;12.584;2022-10-16T18:03:36;8.30;;;5.22;;
14001;SDS011;7076;51.280;12.584;2022-10-16T18:08:40;5.25;;;3.35;;
14001;SDS011;7076;51.280;12.584;2022-10-16T18:13:42;5.40;;;3.15;;
14001;SDS011;7076;51.280;12.584;2022-10-16T18:18:45;3.65;;;2.60;;
14001;SDS011;7076;51.280;12.584;2022-10-16T18:23:49;2.67;;;2.25;;
14001;SDS011;7076;51.280;12.584;2022-10-16T18:28:53;5.65;;;2.45;;
14001;SDS011;7076;51.280;12.584;2022-10-16T18:33:57;2.70;;;2.50;;
14001;SDS011;7076;51.280;12.584;2022-10-16T18:39:02;3.22;;;2.72;;
14001;SDS011;7076;51.280;12.584;2022-10-16T18:44:09;2.60;;;2.38;;
14001;SDS011;7076;51.280;12.584;2022-10-16T18:49:13;5.32;;;3.20;;
14001;SDS011;7076;51.280;12.584;2022-10-16T18:54:17;4.57;;;2.85;;
14001;SDS011;7076;51.280;12.584;2022-10-16T18:59:20;7.40;;;3.50;;
14001;SDS011;7076;51.280;12.584;2022-10-16T19:04:22;3.67;;;2.70;;
14001;SDS011;7076;51.280;12.584;2022-10-16T19:09:26;4.32;;;3.80;;
14001;SDS011;7076;51.280;12.584;2022-10-16T19:14:29;2.95;;;2.33;;
14001;SDS011;7076;51.280;12.584;2022-10-16T19:19:33;4.13;;;2.50;;
14001;SDS011;7076;51.280;12.584;2022-10-16T19:24:37;2.97;;;2.30;;
14001;SDS011;7076;51.280;12.584;2022-10-16T19:29:40;3.20;;;2.25;;
14001;SDS011;7076;51.280;12.584;2022-10-16T19:34:43;3.65;;;2.70;;
14001;SDS011;7076;51.280;12.584;2022-10-16T19:39:49;2.60;;;2.38;;
14001;SDS011;7076;51.280;12.584;2022-10-16T19:44:51;2.20;;;1.95;;
14001;SDS011;7076;51.280;12.584;2022-10-16T19:49:54;3.67;;;2.30;;
14001;SDS011;7076;51.280;12.584;2022-10-16T19:54:58;7.07;;;2.50;;
14001;SDS011;7076;51.280;12.584;2022-10-16T20:00:01;4.30;;;2.00;;
14001;SDS011;7076;51.280;12.584;2022-10-16T20:05:07;1.98;;;1.63;;
14001;SDS011;7076;51.280;12.584;2022-10-16T20:10:11;1.40;;;1.30;;
14001;SDS011;7076;51.280;12.584;2022-10-16T20:15:14;2.33;;;1.67;;
14001;SDS011;7076;51.280;12.584;2022-10-16T20:20:17;3.17;;;2.15;;
14001;SDS011;7076;51.280;12.584;2022-10-16T20:25:21;2.00;;;1.38;;
14001;SDS011;7076;51.280;12.584;2022-10-16T20:30:23;3.22;;;1.48;;
14001;SDS011;7076;51.280;12.584;2022-10-16T20:35:26;2.53;;;1.55;;
14001;SDS011;7076;51.280;12.584;2022-10-16T20:40:32;5.25;;;3.17;;
14001;SDS011;7076;51.280;12.584;2022-10-16T20:45:35;9.90;;;2.20;;
14001;SDS011;7076;51.280;12.584;2022-10-16T20:50:38;3.75;;;1.30;;
14001;SDS011;7076;51.280;12.584;2022-10-16T20:55:42;4.97;;;1.90;;
14001;SDS011;7076;51.280;12.584;2022-10-16T21:00:45;1.60;;;1.50;;
14001;SDS011;7076;51.280;12.584;2022-10-16T21:05:47;4.65;;;2.00;;
14001;SDS011;7076;51.280;12.584;2022-10-16T21:10:51;2.38;;;1.75;;
14001;SDS011;7076;51.280;12.584;2022-10-16T21:15:54;3.83;;;1.80;;
14001;SDS011;7076;51.280;12.584;2022-10-16T21:20:57;1.83;;;1.60;;
14001;SDS011;7076;51.280;12.584;2022-10-16T21:26:00;1.70;;;1.60;;
14001;SDS011;7076;51.280;12.584;2022-10-16T21:31:09;2.13;;;1.58;;
14001;SDS011;7076;51.280;12.584;2022-10-16T21:36:13;2.72;;;2.00;;
14001;SDS011;7076;51.280;12.584;2022-10-16T21:41:19;2.78;;;1.40;;
14001;SDS011;7076;51.280;12.584;2022-10-16T21:46:23;1.95;;;1.60;;
14001;SDS011;7076;51.280;12.584;2022-10-16T21:51:27;2.90;;;2.00;;
14001;SDS011;7076;51.280;12.584;2022-10-16T21:56:32;3.20;;;1.98;;
14001;SDS011;7076;51.280;12.584;2022-10-16T22:01:35;5.07;;;2.08;;
14001;SDS011;7076;51.280;12.584;2022-10-16T22:06:38;2.50;;;1.80;;
14001;SDS011;7076;51.280;12.584;2022-10-16T22:11:43;2.85;;;2.10;;
14001;SDS011;7076;51.280;12.584;2022-10-16T22:16:46;6.68;;;2.35;;
14001;SDS011;7076;51.280;12.584;2022-10-16T22:21:49;2.28;;;1.48;;
14001;SDS011;7076;51.280;12.584;2022-10-16T22:26:56;2.90;;;1.42;;
14001;SDS011;7076;51.280;12.584;2022-10-16T22:31:58;1.80;;;1.70;;
14001;SDS011;7076;51.280;12.584;2022-10-16T22:37:01;3.53;;;1.60;;
14001;SDS011;7076;51.280;12.584;2022-10-16T22:42:05;2.63;;;1.70;;
14001;SDS011;7076;51.280;12.584;2022-10-16T22:47:08;2.35;;;1.75;;
14001;SDS011;7076;51.280;12.584;2022-10-16T22:52:12;1.58;;;1.40;;
14001;SDS011;7076;51.280;12.584;2022-10-16T22:57:16;1.58;;;1.40;;
14001;SDS011;7076;51.280;12.584;2022-10-16T23:02:19;1.50;;;1.40;;
14001;SDS011;7076;51.280;12.584;2022-10-16T23:07:22;5.25;;;1.50;;
14001;SDS011;7076;51.280;12.584;2022-10-16T23:12:26;5.50;;;1.40;;
14001;SDS011;7076;51.280;12.584;2022-10-16T23:17:29;2.40;;;1.50;;
14001;SDS011;7076;51.280;12.584;2022-10-16T23:22:31;1.92;;;1.83;;
14001;SDS011;7076;51.280;12.584;2022-10-16T23:27:36;2.25;;;1.83;;
14001;SDS011;7076;51.280;12.584;2022-10-16T23:32:39;5.18;;;1.65;;
14001;SDS011;7076;51.280;12.584;2022-10-16T23:37:41;1.85;;;1.75;;
14001;SDS011;7076;51.280;12.584;2022-10-16T23:42:45;3.38;;;1.63;;
14001;SDS011;7076;51.280;12.584;2022-10-16T23:47:48;2.00;;;1.80;;
14001;SDS011;7076;51.280;12.584;2022-10-16T23:52:51;4.40;;;1.95;;
14001;SDS011;7076;51.280;12.584;2022-10-16T23:57:55;2.97;;;2.17;;
